sensor_id;sensor_type;location;lat;lon;timestamp;temperature;humidity
9414;DHT22;4746;35.664;139.738;2022-09-01T00:00:09;27.60;99.90
9414;DHT22;4746;35.664;139.738;2022-09-01T00:02:40;27.70;99.90
9414;DHT22;4746;35.664;139.738;2022-09-01T00:05:08;27.80;99.90
9414;DHT22;4746;35.664;139.738;2022-09-01T00:07:38;27.70;99.90
9414;DHT22;4746;35.664;139.738;2022-09-01T00:10:06;27.80;99.90
9414;DHT22;4746;35.664;139.738;2022-09-01T00:12:35;27.80;99.90
9414;DHT22;4746;35.664;139.738;2022-09-01T00:15:06;27.80;99.90
9414;DHT22;4746;35.664;139.738;2022-09-01T00:17:37;27.80;99.90
9414;DHT22;4746;35.664;139.738;2022-09-01T00:20:05;27.80;99.90
9414;DHT22;4746;35.664;139.738;2022-09-01T00:22:33;27.80;99.90
9414;DHT22;4746;35.664;139.738;2022-09-01T00:25:01;27.80;99.90
9414;DHT22;4746;35.664;139.738;2022-09-01T00:27:29;27.80;99.90
9414;DHT22;4746;35.664;139.738;2022-09-01T00:29:58;27.80;99.90
9414;DHT22;4746;35.664;139.738;2022-09-01T00:32:27;27.80;99.90
9414;DHT22;4746;35.664;139.738;2022-09-01T00:34:55;27.80;99.90
9414;DHT22;4746;35.664;139.738;2022-09-01T00:37:24;27.80;99.90
9414;DHT22;4746;35.664;139.738;2022-09-01T00:39:51;27.80;99.90
9414;DHT22;4746;35.664;139.738;2022-09-01T00:42:19;27.80;99.90
9414;DHT22;4746;35.664;139.738;2022-09-01T00:44:47;27.70;99.90
9414;DHT22;4746;35.664;139.738;2022-09-01T00:47:15;27.70;99.90
9414;DHT22;4746;35.664;139.738;2022-09-01T00:49:45;27.70;99.90
9414;DHT22;4746;35.664;139.738;2022-09-01T00:52:20;27.70;99.90
9414;DHT22;4746;35.664;139.738;2022-09-01T00:54:57;27.60;99.90
9414;DHT22;4746;35.664;139.738;2022-09-01T00:57:29;27.70;99.90
9414;DHT22;4746;35.664;139.738;2022-09-01T01:00:11;27.60;99.90
9414;DHT22;4746;35.664;139.738;2022-09-01T01:02:44;27.60;99.90
9414;DHT22;4746;35.664;139.738;2022-09-01T01:05:14;27.70;99.90
9414;DHT22;4746;35.664;139.738;2022-09-01T01:07:42;27.80;99.90
9414;DHT22;4746;35.664;139.738;2022-09-01T01:10:13;27.80;99.90
9414;DHT22;4746;35.664;139.738;2022-09-01T01:12:44;27.80;99.90
9414;DHT22;4746;35.664;139.738;2022-09-01T01:15:13;27.90;99.90
9414;DHT22;4746;35.664;139.738;2022-09-01T01:17:42;27.90;99.90
9414;DHT22;4746;35.664;139.738;2022-09-01T01:20:13;28.00;99.90
9414;DHT22;4746;35.664;139.738;2022-09-01T01:23:05;28.10;99.90
9414;DHT22;4746;35.664;139.738;2022-09-01T01:25:49;28.20;99.90
9414;DHT22;4746;35.664;139.738;2022-09-01T01:28:33;28.30;99.90
9414;DHT22;4746;35.664;139.738;2022-09-01T01:31:08;28.40;99.90
9414;DHT22;4746;35.664;139.738;2022-09-01T01:33:42;28.50;99.90
9414;DHT22;4746;35.664;139.738;2022-09-01T01:36:19;28.60;99.90
9414;DHT22;4746;35.664;139.738;2022-09-01T01:39:36;28.70;99.90
9414;DHT22;4746;35.664;139.738;2022-09-01T01:41:57;28.80;99.90
9414;DHT22;4746;35.664;139.738;2022-09-01T01:44:26;29.00;99.90
9414;DHT22;4746;35.664;139.738;2022-09-01T01:46:54;29.10;99.90
9414;DHT22;4746;35.664;139.738;2022-09-01T01:49:25;29.30;99.90
9414;DHT22;4746;35.664;139.738;2022-09-01T01:51:56;29.50;99.90
9414;DHT22;4746;35.664;139.738;2022-09-01T01:54:25;29.70;99.90
9414;DHT22;4746;35.664;139.738;2022-09-01T01:57:00;29.80;99.90
9414;DHT22;4746;35.664;139.738;2022-09-01T01:59:32;29.80;99.90
9414;DHT22;4746;35.664;139.738;2022-09-01T02:02:01;29.90;99.90
9414;DHT22;4746;35.664;139.738;2022-09-01T02:04:29;29.90;99.90
9414;DHT22;4746;35.664;139.738;2022-09-01T02:06:59;30.00;99.90
9414;DHT22;4746;35.664;139.738;2022-09-01T02:09:26;30.00;99.90
9414;DHT22;4746;35.664;139.738;2022-09-01T02:11:54;30.00;99.90
9414;DHT22;4746;35.664;139.738;2022-09-01T02:14:23;30.10;99.90
9414;DHT22;4746;35.664;139.738;2022-09-01T02:16:51;30.20;99.90
9414;DHT22;4746;35.664;139.738;2022-09-01T02:19:21;30.30;99.90
9414;DHT22;4746;35.664;139.738;2022-09-01T02:21:48;30.40;99.90
9414;DHT22;4746;35.664;139.738;2022-09-01T02:24:20;30.50;99.90
9414;DHT22;4746;35.664;139.738;2022-09-01T02:26:49;30.50;99.90
9414;DHT22;4746;35.664;139.738;2022-09-01T02:29:20;30.50;99.90
9414;DHT22;4746;35.664;139.738;2022-09-01T02:31:55;30.50;99.90
9414;DHT22;4746;35.664;139.738;2022-09-01T02:34:24;30.50;99.90
9414;DHT22;4746;35.664;139.738;2022-09-01T02:36:55;30.50;99.90
9414;DHT22;4746;35.664;139.738;2022-09-01T02:39:26;30.60;99.90
9414;DHT22;4746;35.664;139.738;2022-09-01T02:41:59;30.50;99.90
9414;DHT22;4746;35.664;139.738;2022-09-01T02:44:28;30.70;99.90
9414;DHT22;4746;35.664;139.738;2022-09-01T02:46:57;30.80;99.90
9414;DHT22;4746;35.664;139.738;2022-09-01T02:49:26;30.80;99.90
9414;DHT22;4746;35.664;139.738;2022-09-01T02:51:58;30.90;99.90
9414;DHT22;4746;35.664;139.738;2022-09-01T02:54:27;30.80;99.90
9414;DHT22;4746;35.664;139.738;2022-09-01T02:56:56;30.90;99.90
9414;DHT22;4746;35.664;139.738;2022-09-01T02:59:26;30.90;99.90
9414;DHT22;4746;35.664;139.738;2022-09-01T03:01:55;30.90;99.90
9414;DHT22;4746;35.664;139.738;2022-09-01T03:04:23;31.00;99.90
9414;DHT22;4746;35.664;139.738;2022-09-01T03:06:52;31.10;99.90
9414;DHT22;4746;35.664;139.738;2022-09-01T03:09:20;31.20;99.90
9414;DHT22;4746;35.664;139.738;2022-09-01T03:11:51;31.40;99.90
9414;DHT22;4746;35.664;139.738;2022-09-01T03:14:20;31.50;99.90
9414;DHT22;4746;35.664;139.738;2022-09-01T03:16:50;31.50;99.90
9414;DHT22;4746;35.664;139.738;2022-09-01T03:19:18;31.50;99.90
9414;DHT22;4746;35.664;139.738;2022-09-01T03:21:46;31.60;99.90
9414;DHT22;4746;35.664;139.738;2022-09-01T03:24:15;31.70;99.90
9414;DHT22;4746;35.664;139.738;2022-09-01T03:26:44;31.70;99.90
9414;DHT22;4746;35.664;139.738;2022-09-01T03:29:15;31.60;99.90
9414;DHT22;4746;35.664;139.738;2022-09-01T03:31:43;31.50;99.90
9414;DHT22;4746;35.664;139.738;2022-09-01T03:34:11;31.50;99.90
9414;DHT22;4746;35.664;139.738;2022-09-01T03:36:41;31.50;99.90
9414;DHT22;4746;35.664;139.738;2022-09-01T03:39:16;31.70;99.90
9414;DHT22;4746;35.664;139.738;2022-09-01T03:41:45;31.80;99.90
9414;DHT22;4746;35.664;139.738;2022-09-01T03:44:13;31.90;99.90
9414;DHT22;4746;35.664;139.738;2022-09-01T03:46:42;32.10;99.90
9414;DHT22;4746;35.664;139.738;2022-09-01T03:49:10;32.20;99.90
9414;DHT22;4746;35.664;139.738;2022-09-01T03:51:46;32.30;99.90
9414;DHT22;4746;35.664;139.738;2022-09-01T03:54:14;32.40;99.90
9414;DHT22;4746;35.664;139.738;2022-09-01T03:56:42;32.40;99.90
9414;DHT22;4746;35.664;139.738;2022-09-01T03:59:10;32.60;99.90
9414;DHT22;4746;35.664;139.738;2022-09-01T04:01:42;33.00;99.90
9414;DHT22;4746;35.664;139.738;2022-09-01T04:04:11;33.30;99.90
9414;DHT22;4746;35.664;139.738;2022-09-01T04:06:41;33.60;99.90
9414;DHT22;4746;35.664;139.738;2022-09-01T04:09:11;33.60;99.90
9414;DHT22;4746;35.664;139.738;2022-09-01T04:11:39;33.50;99.90
9414;DHT22;4746;35.664;139.738;2022-09-01T04:14:10;33.60;99.90
9414;DHT22;4746;35.664;139.738;2022-09-01T04:16:38;33.60;99.90
9414;DHT22;4746;35.664;139.738;2022-09-01T04:19:25;33.60;99.90
9414;DHT22;4746;35.664;139.738;2022-09-01T04:22:00;33.40;99.90
9414;DHT22;4746;35.664;139.738;2022-09-01T04:24:30;33.30;99.90
9414;DHT22;4746;35.664;139.738;2022-09-01T04:27:00;33.20;99.90
9414;DHT22;4746;35.664;139.738;2022-09-01T04:29:29;32.80;99.90
9414;DHT22;4746;35.664;139.738;2022-09-01T04:32:06;33.00;99.90
9414;DHT22;4746;35.664;139.738;2022-09-01T04:34:37;33.20;99.90
9414;DHT22;4746;35.664;139.738;2022-09-01T04:37:12;33.10;99.90
9414;DHT22;4746;35.664;139.738;2022-09-01T04:39:51;33.20;99.90
9414;DHT22;4746;35.664;139.738;2022-09-01T04:42:20;33.00;99.90
9414;DHT22;4746;35.664;139.738;2022-09-01T04:44:53;33.00;99.90
9414;DHT22;4746;35.664;139.738;2022-09-01T04:47:22;32.90;99.90
9414;DHT22;4746;35.664;139.738;2022-09-01T04:49:59;32.80;99.90
9414;DHT22;4746;35.664;139.738;2022-09-01T04:52:27;32.80;99.90
9414;DHT22;4746;35.664;139.738;2022-09-01T04:54:57;32.80;99.90
9414;DHT22;4746;35.664;139.738;2022-09-01T04:57:24;33.20;99.90
9414;DHT22;4746;35.664;139.738;2022-09-01T04:59:54;33.70;99.90
9414;DHT22;4746;35.664;139.738;2022-09-01T05:02:25;34.10;99.90
9414;DHT22;4746;35.664;139.738;2022-09-01T05:04:54;34.00;99.90
9414;DHT22;4746;35.664;139.738;2022-09-01T05:07:23;33.90;99.90
9414;DHT22;4746;35.664;139.738;2022-09-01T05:09:52;33.80;99.90
9414;DHT22;4746;35.664;139.738;2022-09-01T05:12:19;33.10;99.90
9414;DHT22;4746;35.664;139.738;2022-09-01T05:14:49;32.90;99.90
9414;DHT22;4746;35.664;139.738;2022-09-01T05:17:16;32.90;99.90
9414;DHT22;4746;35.664;139.738;2022-09-01T05:19:45;33.20;99.90
9414;DHT22;4746;35.664;139.738;2022-09-01T05:22:16;33.40;99.90
9414;DHT22;4746;35.664;139.738;2022-09-01T05:24:47;33.00;99.90
9414;DHT22;4746;35.664;139.738;2022-09-01T05:27:16;32.90;99.90
9414;DHT22;4746;35.664;139.738;2022-09-01T05:29:44;32.80;99.90
9414;DHT22;4746;35.664;139.738;2022-09-01T05:32:12;33.00;99.90
9414;DHT22;4746;35.664;139.738;2022-09-01T05:34:40;33.00;99.90
9414;DHT22;4746;35.664;139.738;2022-09-01T05:37:09;33.10;99.90
9414;DHT22;4746;35.664;139.738;2022-09-01T05:39:39;33.20;99.90
9414;DHT22;4746;35.664;139.738;2022-09-01T05:42:07;33.00;99.90
9414;DHT22;4746;35.664;139.738;2022-09-01T05:44:35;32.80;99.90
9414;DHT22;4746;35.664;139.738;2022-09-01T05:47:09;32.80;99.90
9414;DHT22;4746;35.664;139.738;2022-09-01T05:49:37;32.90;99.90
9414;DHT22;4746;35.664;139.738;2022-09-01T05:52:06;32.80;99.90
9414;DHT22;4746;35.664;139.738;2022-09-01T05:54:34;32.80;99.90
9414;DHT22;4746;35.664;139.738;2022-09-01T05:57:03;33.10;99.90
9414;DHT22;4746;35.664;139.738;2022-09-01T05:59:32;33.00;99.90
9414;DHT22;4746;35.664;139.738;2022-09-01T06:02:00;33.20;99.90
9414;DHT22;4746;35.664;139.738;2022-09-01T06:04:29;33.20;99.90
9414;DHT22;4746;35.664;139.738;2022-09-01T06:06:56;32.80;99.90
9414;DHT22;4746;35.664;139.738;2022-09-01T06:09:24;32.90;99.90
9414;DHT22;4746;35.664;139.738;2022-09-01T06:11:52;32.70;99.90
9414;DHT22;4746;35.664;139.738;2022-09-01T06:14:20;33.00;99.90
9414;DHT22;4746;35.664;139.738;2022-09-01T06:16:47;33.20;99.90
9414;DHT22;4746;35.664;139.738;2022-09-01T06:19:15;33.50;99.90
9414;DHT22;4746;35.664;139.738;2022-09-01T06:21:45;33.40;99.90
9414;DHT22;4746;35.664;139.738;2022-09-01T06:24:14;33.30;99.90
9414;DHT22;4746;35.664;139.738;2022-09-01T06:26:43;33.10;99.90
9414;DHT22;4746;35.664;139.738;2022-09-01T06:29:12;32.70;99.90
9414;DHT22;4746;35.664;139.738;2022-09-01T06:31:41;32.70;99.90
9414;DHT22;4746;35.664;139.738;2022-09-01T06:34:12;32.30;99.90
9414;DHT22;4746;35.664;139.738;2022-09-01T06:36:43;32.00;99.90
9414;DHT22;4746;35.664;139.738;2022-09-01T06:39:13;32.00;99.90
9414;DHT22;4746;35.664;139.738;2022-09-01T06:41:51;32.00;99.90
9414;DHT22;4746;35.664;139.738;2022-09-01T06:44:20;32.00;99.90
9414;DHT22;4746;35.664;139.738;2022-09-01T06:46:49;31.90;99.90
9414;DHT22;4746;35.664;139.738;2022-09-01T06:49:20;31.70;99.90
9414;DHT22;4746;35.664;139.738;2022-09-01T06:52:01;31.70;99.90
9414;DHT22;4746;35.664;139.738;2022-09-01T06:54:31;31.50;99.90
9414;DHT22;4746;35.664;139.738;2022-09-01T06:57:02;31.40;99.90
9414;DHT22;4746;35.664;139.738;2022-09-01T06:59:31;31.30;99.90
9414;DHT22;4746;35.664;139.738;2022-09-01T07:01:59;31.20;99.90
9414;DHT22;4746;35.664;139.738;2022-09-01T07:04:29;31.20;99.90
9414;DHT22;4746;35.664;139.738;2022-09-01T07:06:57;31.00;99.90
9414;DHT22;4746;35.664;139.738;2022-09-01T07:09:25;30.90;99.90
9414;DHT22;4746;35.664;139.738;2022-09-01T07:11:54;30.90;99.90
9414;DHT22;4746;35.664;139.738;2022-09-01T07:14:22;30.90;99.90
9414;DHT22;4746;35.664;139.738;2022-09-01T07:16:50;30.90;99.90
9414;DHT22;4746;35.664;139.738;2022-09-01T07:19:17;30.80;99.90
9414;DHT22;4746;35.664;139.738;2022-09-01T07:21:45;30.80;99.90
9414;DHT22;4746;35.664;139.738;2022-09-01T07:24:13;30.90;99.90
9414;DHT22;4746;35.664;139.738;2022-09-01T07:26:45;30.80;99.90
9414;DHT22;4746;35.664;139.738;2022-09-01T07:29:16;30.90;99.90
9414;DHT22;4746;35.664;139.738;2022-09-01T07:31:45;30.90;99.90
9414;DHT22;4746;35.664;139.738;2022-09-01T07:34:13;30.90;99.90
9414;DHT22;4746;35.664;139.738;2022-09-01T07:36:43;30.80;99.90
9414;DHT22;4746;35.664;139.738;2022-09-01T07:39:12;30.80;99.90
9414;DHT22;4746;35.664;139.738;2022-09-01T07:41:40;30.90;99.90
9414;DHT22;4746;35.664;139.738;2022-09-01T07:44:09;30.90;99.90
9414;DHT22;4746;35.664;139.738;2022-09-01T07:46:39;30.90;99.90
9414;DHT22;4746;35.664;139.738;2022-09-01T07:49:08;30.90;99.90
9414;DHT22;4746;35.664;139.738;2022-09-01T07:51:36;30.80;99.90
9414;DHT22;4746;35.664;139.738;2022-09-01T07:54:05;30.80;99.90
9414;DHT22;4746;35.664;139.738;2022-09-01T07:56:32;30.70;99.90
9414;DHT22;4746;35.664;139.738;2022-09-01T07:59:00;30.70;99.90
9414;DHT22;4746;35.664;139.738;2022-09-01T08:01:28;30.70;99.90
9414;DHT22;4746;35.664;139.738;2022-09-01T08:03:57;30.50;99.90
9414;DHT22;4746;35.664;139.738;2022-09-01T08:06:28;30.40;99.90
9414;DHT22;4746;35.664;139.738;2022-09-01T08:08:58;30.40;99.90
9414;DHT22;4746;35.664;139.738;2022-09-01T08:11:28;30.30;99.90
9414;DHT22;4746;35.664;139.738;2022-09-01T08:13:58;30.30;99.90
9414;DHT22;4746;35.664;139.738;2022-09-01T08:16:28;30.30;99.90
9414;DHT22;4746;35.664;139.738;2022-09-01T08:18:58;30.20;99.90
9414;DHT22;4746;35.664;139.738;2022-09-01T08:21:26;30.20;99.90
9414;DHT22;4746;35.664;139.738;2022-09-01T08:23:54;30.20;99.90
9414;DHT22;4746;35.664;139.738;2022-09-01T08:26:24;30.20;99.90
9414;DHT22;4746;35.664;139.738;2022-09-01T08:28:53;30.20;99.90
9414;DHT22;4746;35.664;139.738;2022-09-01T08:31:22;30.00;99.90
9414;DHT22;4746;35.664;139.738;2022-09-01T08:33:51;29.50;99.90
9414;DHT22;4746;35.664;139.738;2022-09-01T08:36:19;29.10;99.90
9414;DHT22;4746;35.664;139.738;2022-09-01T08:38:47;28.80;99.90
9414;DHT22;4746;35.664;139.738;2022-09-01T08:47:25;28.00;99.90
9414;DHT22;4746;35.664;139.738;2022-09-01T08:49:53;27.70;99.90
9414;DHT22;4746;35.664;139.738;2022-09-01T08:57:51;27.40;99.90
9414;DHT22;4746;35.664;139.738;2022-09-01T09:00:25;27.40;99.90
9414;DHT22;4746;35.664;139.738;2022-09-01T09:09:50;27.30;99.90
9414;DHT22;4746;35.664;139.738;2022-09-01T09:12:34;27.20;99.90
9414;DHT22;4746;35.664;139.738;2022-09-01T09:15:39;27.20;99.90
9414;DHT22;4746;35.664;139.738;2022-09-01T09:18:18;27.00;99.90
9414;DHT22;4746;35.664;139.738;2022-09-01T09:20:50;26.80;99.90
9414;DHT22;4746;35.664;139.738;2022-09-01T09:23:29;26.80;99.90
9414;DHT22;4746;35.664;139.738;2022-09-01T09:26:04;26.80;99.90
9414;DHT22;4746;35.664;139.738;2022-09-01T09:28:31;26.90;99.90
9414;DHT22;4746;35.664;139.738;2022-09-01T09:33:54;27.00;99.90
9414;DHT22;4746;35.664;139.738;2022-09-01T09:36:35;27.00;99.90
9414;DHT22;4746;35.664;139.738;2022-09-01T09:39:12;27.00;99.90
9414;DHT22;4746;35.664;139.738;2022-09-01T09:41:59;26.80;99.90
9414;DHT22;4746;35.664;139.738;2022-09-01T09:44:47;26.80;99.90
9414;DHT22;4746;35.664;139.738;2022-09-01T09:47:40;26.60;99.90
9414;DHT22;4746;35.664;139.738;2022-09-01T09:52:45;26.60;99.90
9414;DHT22;4746;35.664;139.738;2022-09-01T09:55:25;26.60;99.90
9414;DHT22;4746;35.664;139.738;2022-09-01T09:57:59;26.60;99.90
9414;DHT22;4746;35.664;139.738;2022-09-01T10:00:35;26.60;99.90
9414;DHT22;4746;35.664;139.738;2022-09-01T10:03:08;26.60;99.90
9414;DHT22;4746;35.664;139.738;2022-09-01T10:05:48;26.60;99.90
9414;DHT22;4746;35.664;139.738;2022-09-01T10:11:00;26.70;99.90
9414;DHT22;4746;35.664;139.738;2022-09-01T10:13:28;26.80;99.90
9414;DHT22;4746;35.664;139.738;2022-09-01T10:16:00;26.70;99.90
9414;DHT22;4746;35.664;139.738;2022-09-01T10:18:35;26.60;99.90
9414;DHT22;4746;35.664;139.738;2022-09-01T10:24:01;26.30;99.90
9414;DHT22;4746;35.664;139.738;2022-09-01T10:26:41;26.20;99.90
9414;DHT22;4746;35.664;139.738;2022-09-01T10:32:01;26.10;99.90
9414;DHT22;4746;35.664;139.738;2022-09-01T10:34:39;26.10;99.90
9414;DHT22;4746;35.664;139.738;2022-09-01T10:37:09;26.00;99.90
9414;DHT22;4746;35.664;139.738;2022-09-01T10:42:36;26.00;99.90
9414;DHT22;4746;35.664;139.738;2022-09-01T10:45:34;26.10;99.90
9414;DHT22;4746;35.664;139.738;2022-09-01T10:50:53;26.20;99.90
9414;DHT22;4746;35.664;139.738;2022-09-01T10:53:44;26.20;99.90
9414;DHT22;4746;35.664;139.738;2022-09-01T10:56:22;26.20;99.90
9414;DHT22;4746;35.664;139.738;2022-09-01T10:59:06;26.20;99.90
9414;DHT22;4746;35.664;139.738;2022-09-01T11:07:01;26.00;99.90
9414;DHT22;4746;35.664;139.738;2022-09-01T11:09:39;26.00;99.90
9414;DHT22;4746;35.664;139.738;2022-09-01T11:12:17;25.90;99.90
9414;DHT22;4746;35.664;139.738;2022-09-01T11:15:38;26.00;99.90
9414;DHT22;4746;35.664;139.738;2022-09-01T11:18:23;26.00;99.90
9414;DHT22;4746;35.664;139.738;2022-09-01T11:20:58;26.00;99.90
9414;DHT22;4746;35.664;139.738;2022-09-01T11:23:41;26.00;99.90
9414;DHT22;4746;35.664;139.738;2022-09-01T11:26:49;26.00;99.90
9414;DHT22;4746;35.664;139.738;2022-09-01T11:32:37;26.20;99.90
9414;DHT22;4746;35.664;139.738;2022-09-01T11:35:17;26.30;99.90
9414;DHT22;4746;35.664;139.738;2022-09-01T11:37:49;26.50;99.90
9414;DHT22;4746;35.664;139.738;2022-09-01T11:40:27;26.50;99.90
9414;DHT22;4746;35.664;139.738;2022-09-01T11:42:59;26.60;99.90
9414;DHT22;4746;35.664;139.738;2022-09-01T11:45:48;26.60;99.90
9414;DHT22;4746;35.664;139.738;2022-09-01T11:48:23;26.60;99.90
9414;DHT22;4746;35.664;139.738;2022-09-01T11:51:00;26.70;99.90
9414;DHT22;4746;35.664;139.738;2022-09-01T11:53:30;26.80;99.90
9414;DHT22;4746;35.664;139.738;2022-09-01T11:56:13;26.90;99.90
9414;DHT22;4746;35.664;139.738;2022-09-01T11:58:45;26.90;99.90
9414;DHT22;4746;35.664;139.738;2022-09-01T12:01:30;27.00;99.90
9414;DHT22;4746;35.664;139.738;2022-09-01T12:04:24;27.00;99.90
9414;DHT22;4746;35.664;139.738;2022-09-01T12:07:24;27.00;99.90
9414;DHT22;4746;35.664;139.738;2022-09-01T12:10:00;27.00;99.90
9414;DHT22;4746;35.664;139.738;2022-09-01T12:12:34;27.00;99.90
9414;DHT22;4746;35.664;139.738;2022-09-01T12:15:24;27.00;99.90
9414;DHT22;4746;35.664;139.738;2022-09-01T12:18:06;27.00;99.90
9414;DHT22;4746;35.664;139.738;2022-09-01T12:20:40;27.00;99.90
9414;DHT22;4746;35.664;139.738;2022-09-01T12:23:24;27.10;99.90
9414;DHT22;4746;35.664;139.738;2022-09-01T12:26:12;27.10;99.90
9414;DHT22;4746;35.664;139.738;2022-09-01T12:28:56;27.00;99.90
9414;DHT22;4746;35.664;139.738;2022-09-01T12:31:25;27.00;99.90
9414;DHT22;4746;35.664;139.738;2022-09-01T12:33:54;27.10;99.90
9414;DHT22;4746;35.664;139.738;2022-09-01T12:36:29;27.10;99.90
9414;DHT22;4746;35.664;139.738;2022-09-01T12:39:23;27.00;99.90
9414;DHT22;4746;35.664;139.738;2022-09-01T12:44:51;27.00;99.90
9414;DHT22;4746;35.664;139.738;2022-09-01T12:52:33;27.00;99.90
9414;DHT22;4746;35.664;139.738;2022-09-01T12:55:36;27.00;99.90
9414;DHT22;4746;35.664;139.738;2022-09-01T12:58:07;27.00;99.90
9414;DHT22;4746;35.664;139.738;2022-09-01T13:03:34;27.00;99.90
9414;DHT22;4746;35.664;139.738;2022-09-01T13:06:02;26.90;99.90
9414;DHT22;4746;35.664;139.738;2022-09-01T13:08:32;26.90;99.90
9414;DHT22;4746;35.664;139.738;2022-09-01T13:11:06;26.80;99.90
9414;DHT22;4746;35.664;139.738;2022-09-01T13:13:37;26.80;99.90
9414;DHT22;4746;35.664;139.738;2022-09-01T13:16:05;26.80;99.90
9414;DHT22;4746;35.664;139.738;2022-09-01T13:18:39;26.70;99.90
9414;DHT22;4746;35.664;139.738;2022-09-01T13:21:08;26.70;99.90
9414;DHT22;4746;35.664;139.738;2022-09-01T13:23:36;26.70;99.90
9414;DHT22;4746;35.664;139.738;2022-09-01T13:26:03;26.60;99.90
9414;DHT22;4746;35.664;139.738;2022-09-01T13:28:31;26.70;99.90
9414;DHT22;4746;35.664;139.738;2022-09-01T13:31:01;26.70;99.90
9414;DHT22;4746;35.664;139.738;2022-09-01T13:33:35;26.70;99.90
9414;DHT22;4746;35.664;139.738;2022-09-01T13:36:03;26.80;99.90
9414;DHT22;4746;35.664;139.738;2022-09-01T13:38:31;26.80;99.90
9414;DHT22;4746;35.664;139.738;2022-09-01T13:41:02;26.80;99.90
9414;DHT22;4746;35.664;139.738;2022-09-01T13:43:29;26.80;99.90
9414;DHT22;4746;35.664;139.738;2022-09-01T13:45:57;26.70;99.90
9414;DHT22;4746;35.664;139.738;2022-09-01T13:48:25;26.70;99.90
9414;DHT22;4746;35.664;139.738;2022-09-01T13:50:54;26.80;99.90
9414;DHT22;4746;35.664;139.738;2022-09-01T13:53:23;26.80;99.90
9414;DHT22;4746;35.664;139.738;2022-09-01T13:55:51;26.70;99.90
9414;DHT22;4746;35.664;139.738;2022-09-01T13:58:19;26.70;99.90
9414;DHT22;4746;35.664;139.738;2022-09-01T14:00:47;26.70;99.90
9414;DHT22;4746;35.664;139.738;2022-09-01T14:03:20;26.70;99.90
9414;DHT22;4746;35.664;139.738;2022-09-01T14:05:50;26.70;99.90
9414;DHT22;4746;35.664;139.738;2022-09-01T14:08:19;26.70;99.90
9414;DHT22;4746;35.664;139.738;2022-09-01T14:10:50;26.80;99.90
9414;DHT22;4746;35.664;139.738;2022-09-01T14:13:22;26.80;99.90
9414;DHT22;4746;35.664;139.738;2022-09-01T14:15:50;26.90;99.90
9414;DHT22;4746;35.664;139.738;2022-09-01T14:18:20;26.90;99.90
9414;DHT22;4746;35.664;139.738;2022-09-01T14:20:50;27.00;99.90
9414;DHT22;4746;35.664;139.738;2022-09-01T14:23:18;27.00;99.90
9414;DHT22;4746;35.664;139.738;2022-09-01T14:25:49;27.10;99.90
9414;DHT22;4746;35.664;139.738;2022-09-01T14:28:19;27.10;99.90
9414;DHT22;4746;35.664;139.738;2022-09-01T14:30:49;27.20;99.90
9414;DHT22;4746;35.664;139.738;2022-09-01T14:33:17;27.20;99.90
9414;DHT22;4746;35.664;139.738;2022-09-01T14:35:50;27.20;99.90
9414;DHT22;4746;35.664;139.738;2022-09-01T14:38:17;27.10;99.90
9414;DHT22;4746;35.664;139.738;2022-09-01T14:40:47;27.10;99.90
9414;DHT22;4746;35.664;139.738;2022-09-01T14:43:17;27.10;99.90
9414;DHT22;4746;35.664;139.738;2022-09-01T14:45:45;27.20;99.90
9414;DHT22;4746;35.664;139.738;2022-09-01T14:48:15;27.20;99.90
9414;DHT22;4746;35.664;139.738;2022-09-01T14:50:47;27.20;99.90
9414;DHT22;4746;35.664;139.738;2022-09-01T14:53:16;27.20;99.90
9414;DHT22;4746;35.664;139.738;2022-09-01T14:55:44;27.20;99.90
9414;DHT22;4746;35.664;139.738;2022-09-01T14:58:12;27.30;99.90
9414;DHT22;4746;35.664;139.738;2022-09-01T15:00:39;27.30;99.90
9414;DHT22;4746;35.664;139.738;2022-09-01T15:03:07;27.30;99.90
9414;DHT22;4746;35.664;139.738;2022-09-01T15:05:36;27.30;99.90
9414;DHT22;4746;35.664;139.738;2022-09-01T15:08:05;27.40;99.90
9414;DHT22;4746;35.664;139.738;2022-09-01T15:10:34;27.40;99.90
9414;DHT22;4746;35.664;139.738;2022-09-01T15:13:03;27.40;99.90
9414;DHT22;4746;35.664;139.738;2022-09-01T15:15:31;27.40;99.90
9414;DHT22;4746;35.664;139.738;2022-09-01T15:18:00;27.40;99.90
9414;DHT22;4746;35.664;139.738;2022-09-01T15:20:29;27.40;99.90
9414;DHT22;4746;35.664;139.738;2022-09-01T15:23:15;27.40;99.90
9414;DHT22;4746;35.664;139.738;2022-09-01T15:25:45;27.40;99.90
9414;DHT22;4746;35.664;139.738;2022-09-01T15:28:14;27.50;99.90
9414;DHT22;4746;35.664;139.738;2022-09-01T15:30:42;27.40;99.90
9414;DHT22;4746;35.664;139.738;2022-09-01T15:33:12;27.40;99.90
9414;DHT22;4746;35.664;139.738;2022-09-01T15:35:41;27.50;99.90
9414;DHT22;4746;35.664;139.738;2022-09-01T15:38:10;27.50;99.90
9414;DHT22;4746;35.664;139.738;2022-09-01T15:40:42;27.50;99.90
9414;DHT22;4746;35.664;139.738;2022-09-01T15:43:11;27.50;99.90
9414;DHT22;4746;35.664;139.738;2022-09-01T15:45:38;27.50;99.90
9414;DHT22;4746;35.664;139.738;2022-09-01T15:48:07;27.50;99.90
9414;DHT22;4746;35.664;139.738;2022-09-01T15:50:34;27.50;99.90
9414;DHT22;4746;35.664;139.738;2022-09-01T15:53:04;27.50;99.90
9414;DHT22;4746;35.664;139.738;2022-09-01T15:55:47;27.50;99.90
9414;DHT22;4746;35.664;139.738;2022-09-01T15:58:17;27.50;99.90
9414;DHT22;4746;35.664;139.738;2022-09-01T16:00:45;27.50;99.90
9414;DHT22;4746;35.664;139.738;2022-09-01T16:03:13;27.50;99.90
9414;DHT22;4746;35.664;139.738;2022-09-01T16:05:42;27.50;99.90
9414;DHT22;4746;35.664;139.738;2022-09-01T16:08:09;27.50;99.90
9414;DHT22;4746;35.664;139.738;2022-09-01T16:10:39;27.40;99.90
9414;DHT22;4746;35.664;139.738;2022-09-01T16:13:07;27.50;99.90
9414;DHT22;4746;35.664;139.738;2022-09-01T16:15:43;27.40;99.90
9414;DHT22;4746;35.664;139.738;2022-09-01T16:18:45;27.50;99.90
9414;DHT22;4746;35.664;139.738;2022-09-01T16:21:28;27.50;99.90
9414;DHT22;4746;35.664;139.738;2022-09-01T16:24:16;27.40;99.90
9414;DHT22;4746;35.664;139.738;2022-09-01T16:26:46;27.40;99.90
9414;DHT22;4746;35.664;139.738;2022-09-01T16:29:32;27.40;99.90
9414;DHT22;4746;35.664;139.738;2022-09-01T16:32:05;27.50;99.90
9414;DHT22;4746;35.664;139.738;2022-09-01T16:34:33;27.50;99.90
9414;DHT22;4746;35.664;139.738;2022-09-01T16:40:50;27.50;99.90
9414;DHT22;4746;35.664;139.738;2022-09-01T16:43:53;27.50;99.90
9414;DHT22;4746;35.664;139.738;2022-09-01T16:47:11;27.50;99.90
9414;DHT22;4746;35.664;139.738;2022-09-01T16:50:07;27.40;99.90
9414;DHT22;4746;35.664;139.738;2022-09-01T17:10:10;27.40;99.90
9414;DHT22;4746;35.664;139.738;2022-09-01T17:12:50;27.30;99.90
9414;DHT22;4746;35.664;139.738;2022-09-01T17:15:37;27.30;99.90
9414;DHT22;4746;35.664;139.738;2022-09-01T17:21:30;27.20;99.90
9414;DHT22;4746;35.664;139.738;2022-09-01T17:27:22;27.10;99.90